sensor_id;sensor_type;location;lat;lon;timestamp;P1;durP1;ratioP1;P2;durP2;ratioP2
17915;SDS011;9083;49.156;8.982;2023-05-02T00:00:54;7.13;;;4.93;;
17915;SDS011;9083;49.156;8.982;2023-05-02T00:03:21;6.37;;;5.70;;
17915;SDS011;9083;49.156;8.982;2023-05-02T00:05:49;8.00;;;5.60;;
17915;SDS011;9083;49.156;8.982;2023-05-02T00:08:15;7.43;;;5.70;;
17915;SDS011;9083;49.156;8.982;2023-05-02T00:10:42;7.47;;;5.87;;
17915;SDS011;9083;49.156;8.982;2023-05-02T00:13:08;6.30;;;5.07;;
17915;SDS011;9083;49.156;8.982;2023-05-02T00:15:35;6.97;;;5.70;;
17915;SDS011;9083;49.156;8.982;2023-05-02T00:18:01;6.73;;;5.70;;
17915;SDS011;9083;49.156;8.982;2023-05-02T00:20:27;6.40;;;5.80;;
17915;SDS011;9083;49.156;8.982;2023-05-02T00:22:55;10.00;;;5.87;;
17915;SDS011;9083;49.156;8.982;2023-05-02T00:25:22;6.67;;;5.80;;
17915;SDS011;9083;49.156;8.982;2023-05-02T00:27:48;7.07;;;6.13;;
17915;SDS011;9083;49.156;8.982;2023-05-02T00:30:15;7.17;;;5.47;;
17915;SDS011;9083;49.156;8.982;2023-05-02T00:32:42;6.53;;;5.90;;
17915;SDS011;9083;49.156;8.982;2023-05-02T00:35:08;5.33;;;4.80;;
17915;SDS011;9083;49.156;8.982;2023-05-02T00:37:35;9.33;;;5.67;;
17915;SDS011;9083;49.156;8.982;2023-05-02T00:40:03;6.20;;;5.20;;
17915;SDS011;9083;49.156;8.982;2023-05-02T00:42:29;7.53;;;5.13;;
17915;SDS011;9083;49.156;8.982;2023-05-02T00:44:59;7.73;;;5.70;;
17915;SDS011;9083;49.156;8.982;2023-05-02T00:47:26;6.00;;;5.43;;
17915;SDS011;9083;49.156;8.982;2023-05-02T00:49:52;7.03;;;5.77;;
17915;SDS011;9083;49.156;8.982;2023-05-02T00:52:19;7.97;;;5.70;;
17915;SDS011;9083;49.156;8.982;2023-05-02T00:54:45;5.80;;;5.07;;
17915;SDS011;9083;49.156;8.982;2023-05-02T00:57:13;7.33;;;6.07;;
17915;SDS011;9083;49.156;8.982;2023-05-02T00:59:40;8.17;;;5.50;;
17915;SDS011;9083;49.156;8.982;2023-05-02T01:02:10;5.80;;;5.20;;
17915;SDS011;9083;49.156;8.982;2023-05-02T01:04:48;8.33;;;6.13;;
17915;SDS011;9083;49.156;8.982;2023-05-02T01:07:22;6.53;;;5.23;;
17915;SDS011;9083;49.156;8.982;2023-05-02T01:09:56;5.90;;;5.30;;
17915;SDS011;9083;49.156;8.982;2023-05-02T01:12:31;5.90;;;4.73;;
17915;SDS011;9083;49.156;8.982;2023-05-02T01:14:58;5.70;;;5.10;;
17915;SDS011;9083;49.156;8.982;2023-05-02T01:17:29;5.63;;;4.60;;
17915;SDS011;9083;49.156;8.982;2023-05-02T01:19:57;6.90;;;5.30;;
17915;SDS011;9083;49.156;8.982;2023-05-02T01:22:23;6.60;;;5.20;;
17915;SDS011;9083;49.156;8.982;2023-05-02T01:24:51;5.67;;;4.87;;
17915;SDS011;9083;49.156;8.982;2023-05-02T01:27:21;5.10;;;4.70;;
17915;SDS011;9083;49.156;8.982;2023-05-02T01:29:51;5.23;;;4.73;;
17915;SDS011;9083;49.156;8.982;2023-05-02T01:32:18;7.07;;;5.50;;
17915;SDS011;9083;49.156;8.982;2023-05-02T01:34:45;6.13;;;5.53;;
17915;SDS011;9083;49.156;8.982;2023-05-02T01:37:13;6.67;;;5.03;;
17915;SDS011;9083;49.156;8.982;2023-05-02T01:39:41;9.47;;;5.57;;
17915;SDS011;9083;49.156;8.982;2023-05-02T01:42:07;7.07;;;5.30;;
17915;SDS011;9083;49.156;8.982;2023-05-02T01:44:35;8.93;;;5.77;;
17915;SDS011;9083;49.156;8.982;2023-05-02T01:47:03;5.87;;;4.90;;
17915;SDS011;9083;49.156;8.982;2023-05-02T01:49:31;5.60;;;5.10;;
17915;SDS011;9083;49.156;8.982;2023-05-02T01:51:59;7.60;;;5.27;;
17915;SDS011;9083;49.156;8.982;2023-05-02T01:54:27;6.07;;;4.73;;
17915;SDS011;9083;49.156;8.982;2023-05-02T01:56:54;7.57;;;5.77;;
17915;SDS011;9083;49.156;8.982;2023-05-02T01:59:21;6.73;;;5.53;;
17915;SDS011;9083;49.156;8.982;2023-05-02T02:01:48;6.40;;;5.57;;
17915;SDS011;9083;49.156;8.982;2023-05-02T02:04:18;7.80;;;5.90;;
17915;SDS011;9083;49.156;8.982;2023-05-02T02:06:45;5.33;;;4.83;;
17915;SDS011;9083;49.156;8.982;2023-05-02T02:09:13;8.43;;;5.20;;
17915;SDS011;9083;49.156;8.982;2023-05-02T02:11:42;6.63;;;5.93;;
17915;SDS011;9083;49.156;8.982;2023-05-02T02:14:11;11.40;;;6.00;;
17915;SDS011;9083;49.156;8.982;2023-05-02T02:16:40;8.57;;;6.07;;
17915;SDS011;9083;49.156;8.982;2023-05-02T02:19:08;6.33;;;5.57;;
17915;SDS011;9083;49.156;8.982;2023-05-02T02:21:37;7.40;;;6.13;;
17915;SDS011;9083;49.156;8.982;2023-05-02T02:24:05;12.07;;;6.43;;
17915;SDS011;9083;49.156;8.982;2023-05-02T02:26:32;7.57;;;6.20;;
17915;SDS011;9083;49.156;8.982;2023-05-02T02:28:59;8.13;;;6.30;;
17915;SDS011;9083;49.156;8.982;2023-05-02T02:31:29;6.67;;;5.60;;
17915;SDS011;9083;49.156;8.982;2023-05-02T02:33:55;7.60;;;6.50;;
17915;SDS011;9083;49.156;8.982;2023-05-02T02:36:23;8.10;;;6.10;;
17915;SDS011;9083;49.156;8.982;2023-05-02T02:38:53;8.70;;;6.53;;
17915;SDS011;9083;49.156;8.982;2023-05-02T02:41:26;7.63;;;5.97;;
17915;SDS011;9083;49.156;8.982;2023-05-02T02:43:56;6.83;;;6.10;;
17915;SDS011;9083;49.156;8.982;2023-05-02T02:46:27;7.07;;;6.03;;
17915;SDS011;9083;49.156;8.982;2023-05-02T02:48:55;8.00;;;6.50;;
17915;SDS011;9083;49.156;8.982;2023-05-02T02:51:24;6.90;;;5.80;;
17915;SDS011;9083;49.156;8.982;2023-05-02T02:53:56;6.90;;;6.23;;
17915;SDS011;9083;49.156;8.982;2023-05-02T02:56:27;9.27;;;6.77;;
17915;SDS011;9083;49.156;8.982;2023-05-02T02:58:54;7.63;;;5.53;;
17915;SDS011;9083;49.156;8.982;2023-05-02T03:01:23;8.67;;;6.80;;
17915;SDS011;9083;49.156;8.982;2023-05-02T03:03:50;7.90;;;6.20;;
17915;SDS011;9083;49.156;8.982;2023-05-02T03:06:17;8.03;;;5.57;;
17915;SDS011;9083;49.156;8.982;2023-05-02T03:08:44;9.60;;;5.70;;
17915;SDS011;9083;49.156;8.982;2023-05-02T03:11:11;9.67;;;6.73;;
17915;SDS011;9083;49.156;8.982;2023-05-02T03:13:38;8.07;;;6.23;;
17915;SDS011;9083;49.156;8.982;2023-05-02T03:18:45;12.27;;;6.47;;
17915;SDS011;9083;49.156;8.982;2023-05-02T03:21:12;9.50;;;6.50;;
17915;SDS011;9083;49.156;8.982;2023-05-02T03:23:38;6.87;;;6.17;;
17915;SDS011;9083;49.156;8.982;2023-05-02T03:26:05;8.10;;;6.37;;
17915;SDS011;9083;49.156;8.982;2023-05-02T03:28:32;10.63;;;6.90;;
17915;SDS011;9083;49.156;8.982;2023-05-02T03:30:59;13.83;;;6.83;;
17915;SDS011;9083;49.156;8.982;2023-05-02T03:33:25;8.23;;;7.03;;
17915;SDS011;9083;49.156;8.982;2023-05-02T03:35:52;6.63;;;5.97;;
17915;SDS011;9083;49.156;8.982;2023-05-02T03:38:18;10.60;;;6.97;;
17915;SDS011;9083;49.156;8.982;2023-05-02T03:40:45;10.77;;;6.50;;
17915;SDS011;9083;49.156;8.982;2023-05-02T03:43:11;12.63;;;6.70;;
17915;SDS011;9083;49.156;8.982;2023-05-02T03:45:39;9.17;;;6.27;;
17915;SDS011;9083;49.156;8.982;2023-05-02T03:48:05;9.77;;;6.37;;
17915;SDS011;9083;49.156;8.982;2023-05-02T03:50:31;8.43;;;6.63;;
17915;SDS011;9083;49.156;8.982;2023-05-02T03:52:58;10.53;;;6.87;;
17915;SDS011;9083;49.156;8.982;2023-05-02T03:55:24;13.53;;;6.73;;
17915;SDS011;9083;49.156;8.982;2023-05-02T03:57:52;14.00;;;6.67;;
17915;SDS011;9083;49.156;8.982;2023-05-02T04:00:19;8.40;;;7.17;;
17915;SDS011;9083;49.156;8.982;2023-05-02T04:02:46;8.87;;;6.87;;
17915;SDS011;9083;49.156;8.982;2023-05-02T04:05:13;15.20;;;7.47;;
17915;SDS011;9083;49.156;8.982;2023-05-02T04:07:39;10.87;;;5.87;;
17915;SDS011;9083;49.156;8.982;2023-05-02T04:10:06;8.00;;;6.20;;
17915;SDS011;9083;49.156;8.982;2023-05-02T04:12:40;14.07;;;6.50;;
17915;SDS011;9083;49.156;8.982;2023-05-02T04:15:07;8.53;;;6.60;;
17915;SDS011;9083;49.156;8.982;2023-05-02T04:17:33;9.23;;;6.27;;
17915;SDS011;9083;49.156;8.982;2023-05-02T04:20:01;8.47;;;6.13;;
17915;SDS011;9083;49.156;8.982;2023-05-02T04:22:29;9.30;;;6.90;;
17915;SDS011;9083;49.156;8.982;2023-05-02T04:24:55;7.87;;;6.60;;
17915;SDS011;9083;49.156;8.982;2023-05-02T04:27:21;15.97;;;6.30;;
17915;SDS011;9083;49.156;8.982;2023-05-02T04:29:48;14.97;;;6.37;;
17915;SDS011;9083;49.156;8.982;2023-05-02T04:32:14;12.97;;;6.67;;
17915;SDS011;9083;49.156;8.982;2023-05-02T04:34:41;12.67;;;6.60;;
17915;SDS011;9083;49.156;8.982;2023-05-02T04:37:09;12.80;;;7.03;;
17915;SDS011;9083;49.156;8.982;2023-05-02T04:39:38;14.83;;;7.13;;
17915;SDS011;9083;49.156;8.982;2023-05-02T04:42:05;9.67;;;6.57;;
17915;SDS011;9083;49.156;8.982;2023-05-02T04:44:31;12.87;;;7.03;;
17915;SDS011;9083;49.156;8.982;2023-05-02T04:46:57;14.20;;;6.80;;
17915;SDS011;9083;49.156;8.982;2023-05-02T04:49:24;15.00;;;7.83;;
17915;SDS011;9083;49.156;8.982;2023-05-02T04:51:50;9.87;;;6.80;;
17915;SDS011;9083;49.156;8.982;2023-05-02T04:54:18;16.30;;;6.90;;
17915;SDS011;9083;49.156;8.982;2023-05-02T04:56:45;10.00;;;6.87;;
17915;SDS011;9083;49.156;8.982;2023-05-02T04:59:11;16.43;;;7.33;;
17915;SDS011;9083;49.156;8.982;2023-05-02T05:01:38;7.17;;;6.33;;
17915;SDS011;9083;49.156;8.982;2023-05-02T05:04:04;10.23;;;6.73;;
17915;SDS011;9083;49.156;8.982;2023-05-02T05:06:30;9.17;;;7.20;;
17915;SDS011;9083;49.156;8.982;2023-05-02T05:08:57;10.87;;;6.40;;
17915;SDS011;9083;49.156;8.982;2023-05-02T05:11:25;9.63;;;6.53;;
17915;SDS011;9083;49.156;8.982;2023-05-02T05:13:51;8.10;;;6.80;;
17915;SDS011;9083;49.156;8.982;2023-05-02T05:16:18;10.07;;;7.17;;
17915;SDS011;9083;49.156;8.982;2023-05-02T05:18:44;9.60;;;7.20;;
17915;SDS011;9083;49.156;8.982;2023-05-02T05:21:11;8.87;;;6.33;;
17915;SDS011;9083;49.156;8.982;2023-05-02T05:23:37;12.77;;;7.47;;
17915;SDS011;9083;49.156;8.982;2023-05-02T05:26:10;16.00;;;7.13;;
17915;SDS011;9083;49.156;8.982;2023-05-02T05:28:37;14.60;;;7.57;;
17915;SDS011;9083;49.156;8.982;2023-05-02T05:31:04;9.60;;;6.70;;
17915;SDS011;9083;49.156;8.982;2023-05-02T05:33:31;15.80;;;7.70;;
17915;SDS011;9083;49.156;8.982;2023-05-02T05:36:02;10.17;;;8.03;;
17915;SDS011;9083;49.156;8.982;2023-05-02T05:38:28;31.37;;;8.47;;
17915;SDS011;9083;49.156;8.982;2023-05-02T05:40:55;12.63;;;7.00;;
17915;SDS011;9083;49.156;8.982;2023-05-02T05:43:21;11.43;;;6.67;;
17915;SDS011;9083;49.156;8.982;2023-05-02T05:45:51;10.27;;;6.93;;
17915;SDS011;9083;49.156;8.982;2023-05-02T05:48:17;12.60;;;8.83;;
17915;SDS011;9083;49.156;8.982;2023-05-02T05:50:43;20.13;;;8.03;;
17915;SDS011;9083;49.156;8.982;2023-05-02T05:53:10;20.07;;;7.13;;
17915;SDS011;9083;49.156;8.982;2023-05-02T05:55:37;12.00;;;6.90;;
17915;SDS011;9083;49.156;8.982;2023-05-02T05:58:03;11.47;;;7.53;;
17915;SDS011;9083;49.156;8.982;2023-05-02T06:00:30;10.53;;;7.73;;
17915;SDS011;9083;49.156;8.982;2023-05-02T06:02:58;8.07;;;7.07;;
17915;SDS011;9083;49.156;8.982;2023-05-02T06:05:24;15.13;;;7.20;;
17915;SDS011;9083;49.156;8.982;2023-05-02T06:07:50;16.03;;;7.67;;
17915;SDS011;9083;49.156;8.982;2023-05-02T06:10:17;14.87;;;7.07;;
17915;SDS011;9083;49.156;8.982;2023-05-02T06:12:43;14.63;;;7.90;;
17915;SDS011;9083;49.156;8.982;2023-05-02T06:15:10;12.77;;;7.97;;
17915;SDS011;9083;49.156;8.982;2023-05-02T06:17:36;8.73;;;7.67;;
17915;SDS011;9083;49.156;8.982;2023-05-02T06:20:04;10.33;;;7.90;;
17915;SDS011;9083;49.156;8.982;2023-05-02T06:22:31;11.10;;;8.53;;
17915;SDS011;9083;49.156;8.982;2023-05-02T06:24:57;9.57;;;7.23;;
17915;SDS011;9083;49.156;8.982;2023-05-02T06:27:24;19.30;;;10.40;;
17915;SDS011;9083;49.156;8.982;2023-05-02T06:29:51;18.00;;;8.23;;
17915;SDS011;9083;49.156;8.982;2023-05-02T06:32:17;9.07;;;7.03;;
17915;SDS011;9083;49.156;8.982;2023-05-02T06:34:44;16.20;;;8.47;;
17915;SDS011;9083;49.156;8.982;2023-05-02T06:37:12;8.93;;;7.33;;
17915;SDS011;9083;49.156;8.982;2023-05-02T06:39:38;10.30;;;7.93;;
17915;SDS011;9083;49.156;8.982;2023-05-02T06:42:04;11.60;;;8.83;;
17915;SDS011;9083;49.156;8.982;2023-05-02T06:44:31;19.70;;;9.40;;
17915;SDS011;9083;49.156;8.982;2023-05-02T06:46:57;17.90;;;8.67;;
17915;SDS011;9083;49.156;8.982;2023-05-02T06:49:24;20.10;;;9.37;;
17915;SDS011;9083;49.156;8.982;2023-05-02T06:51:51;17.03;;;9.00;;
17915;SDS011;9083;49.156;8.982;2023-05-02T06:54:19;28.23;;;10.47;;
17915;SDS011;9083;49.156;8.982;2023-05-02T06:56:45;20.90;;;11.30;;
17915;SDS011;9083;49.156;8.982;2023-05-02T06:59:12;17.13;;;11.13;;
17915;SDS011;9083;49.156;8.982;2023-05-02T07:01:40;21.80;;;13.83;;
17915;SDS011;9083;49.156;8.982;2023-05-02T07:04:07;22.33;;;12.73;;
17915;SDS011;9083;49.156;8.982;2023-05-02T07:06:33;21.77;;;12.93;;
17915;SDS011;9083;49.156;8.982;2023-05-02T07:08:59;23.03;;;13.93;;
17915;SDS011;9083;49.156;8.982;2023-05-02T07:11:27;26.90;;;13.47;;
17915;SDS011;9083;49.156;8.982;2023-05-02T07:13:54;26.53;;;14.23;;
17915;SDS011;9083;49.156;8.982;2023-05-02T07:16:20;29.50;;;14.53;;
17915;SDS011;9083;49.156;8.982;2023-05-02T07:18:46;28.83;;;13.87;;
17915;SDS011;9083;49.156;8.982;2023-05-02T07:21:13;30.73;;;14.60;;
17915;SDS011;9083;49.156;8.982;2023-05-02T07:23:39;20.87;;;12.77;;
17915;SDS011;9083;49.156;8.982;2023-05-02T07:26:06;18.13;;;13.57;;
17915;SDS011;9083;49.156;8.982;2023-05-02T07:28:33;19.47;;;11.80;;
17915;SDS011;9083;49.156;8.982;2023-05-02T07:31:00;23.50;;;14.10;;
17915;SDS011;9083;49.156;8.982;2023-05-02T07:33:26;21.63;;;15.13;;
17915;SDS011;9083;49.156;8.982;2023-05-02T07:35:52;25.87;;;15.07;;
17915;SDS011;9083;49.156;8.982;2023-05-02T07:38:20;26.10;;;16.13;;
17915;SDS011;9083;49.156;8.982;2023-05-02T07:40:47;25.60;;;15.20;;
17915;SDS011;9083;49.156;8.982;2023-05-02T07:43:13;23.07;;;15.63;;
17915;SDS011;9083;49.156;8.982;2023-05-02T07:45:41;23.23;;;15.60;;
17915;SDS011;9083;49.156;8.982;2023-05-02T07:48:08;25.50;;;16.03;;
17915;SDS011;9083;49.156;8.982;2023-05-02T07:50:34;26.97;;;15.50;;
17915;SDS011;9083;49.156;8.982;2023-05-02T07:53:01;23.13;;;14.47;;
17915;SDS011;9083;49.156;8.982;2023-05-02T07:55:27;27.33;;;15.83;;
17915;SDS011;9083;49.156;8.982;2023-05-02T07:57:55;33.23;;;15.33;;
17915;SDS011;9083;49.156;8.982;2023-05-02T08:00:21;32.27;;;15.83;;
17915;SDS011;9083;49.156;8.982;2023-05-02T08:02:49;25.33;;;15.17;;
17915;SDS011;9083;49.156;8.982;2023-05-02T08:05:15;23.43;;;14.20;;
17915;SDS011;9083;49.156;8.982;2023-05-02T08:07:42;24.17;;;15.63;;
17915;SDS011;9083;49.156;8.982;2023-05-02T08:10:08;27.87;;;14.57;;
17915;SDS011;9083;49.156;8.982;2023-05-02T08:12:36;31.77;;;15.60;;
17915;SDS011;9083;49.156;8.982;2023-05-02T08:15:03;25.33;;;15.10;;
17915;SDS011;9083;49.156;8.982;2023-05-02T08:17:30;27.97;;;15.37;;
17915;SDS011;9083;49.156;8.982;2023-05-02T08:19:58;35.03;;;16.63;;
17915;SDS011;9083;49.156;8.982;2023-05-02T08:22:24;27.67;;;16.30;;
17915;SDS011;9083;49.156;8.982;2023-05-02T08:24:51;33.97;;;16.07;;
17915;SDS011;9083;49.156;8.982;2023-05-02T08:27:17;30.83;;;16.67;;
17915;SDS011;9083;49.156;8.982;2023-05-02T08:29:44;26.33;;;14.57;;
17915;SDS011;9083;49.156;8.982;2023-05-02T08:32:10;23.03;;;14.23;;
17915;SDS011;9083;49.156;8.982;2023-05-02T08:34:36;30.07;;;14.77;;
17915;SDS011;9083;49.156;8.982;2023-05-02T08:37:07;25.93;;;15.67;;
17915;SDS011;9083;49.156;8.982;2023-05-02T08:39:37;25.30;;;15.87;;
17915;SDS011;9083;49.156;8.982;2023-05-02T08:42:05;24.97;;;14.07;;
17915;SDS011;9083;49.156;8.982;2023-05-02T08:44:31;24.00;;;15.20;;
17915;SDS011;9083;49.156;8.982;2023-05-02T08:46:57;57.37;;;18.90;;
17915;SDS011;9083;49.156;8.982;2023-05-02T08:49:25;25.93;;;15.90;;
17915;SDS011;9083;49.156;8.982;2023-05-02T08:51:52;27.00;;;15.27;;
17915;SDS011;9083;49.156;8.982;2023-05-02T08:54:20;26.33;;;16.13;;
17915;SDS011;9083;49.156;8.982;2023-05-02T08:56:49;28.20;;;16.00;;
17915;SDS011;9083;49.156;8.982;2023-05-02T08:59:16;22.47;;;14.63;;
17915;SDS011;9083;49.156;8.982;2023-05-02T09:01:42;31.37;;;19.03;;
17915;SDS011;9083;49.156;8.982;2023-05-02T09:04:10;59.70;;;18.83;;
17915;SDS011;9083;49.156;8.982;2023-05-02T09:06:36;37.50;;;17.13;;
17915;SDS011;9083;49.156;8.982;2023-05-02T09:09:03;22.93;;;13.60;;
17915;SDS011;9083;49.156;8.982;2023-05-02T09:11:31;23.40;;;15.87;;
17915;SDS011;9083;49.156;8.982;2023-05-02T09:13:57;34.40;;;17.57;;
17915;SDS011;9083;49.156;8.982;2023-05-02T09:16:27;56.30;;;20.63;;
17915;SDS011;9083;49.156;8.982;2023-05-02T09:18:55;27.83;;;17.27;;
17915;SDS011;9083;49.156;8.982;2023-05-02T09:21:22;23.03;;;14.43;;
17915;SDS011;9083;49.156;8.982;2023-05-02T09:23:50;32.57;;;18.63;;
17915;SDS011;9083;49.156;8.982;2023-05-02T09:26:17;21.53;;;14.67;;
17915;SDS011;9083;49.156;8.982;2023-05-02T09:28:45;27.37;;;16.90;;
17915;SDS011;9083;49.156;8.982;2023-05-02T09:31:12;24.87;;;14.27;;
17915;SDS011;9083;49.156;8.982;2023-05-02T09:33:39;26.23;;;16.13;;
17915;SDS011;9083;49.156;8.982;2023-05-02T09:36:07;24.80;;;16.23;;
17915;SDS011;9083;49.156;8.982;2023-05-02T09:38:34;17.23;;;12.53;;
17915;SDS011;9083;49.156;8.982;2023-05-02T09:41:00;22.17;;;15.03;;
17915;SDS011;9083;49.156;8.982;2023-05-02T09:43:27;25.77;;;14.37;;
17915;SDS011;9083;49.156;8.982;2023-05-02T09:45:58;21.77;;;13.83;;
17915;SDS011;9083;49.156;8.982;2023-05-02T09:48:25;47.10;;;17.00;;
17915;SDS011;9083;49.156;8.982;2023-05-02T09:50:52;27.70;;;18.23;;
17915;SDS011;9083;49.156;8.982;2023-05-02T09:53:18;29.93;;;17.67;;
17915;SDS011;9083;49.156;8.982;2023-05-02T09:55:45;27.93;;;17.30;;
17915;SDS011;9083;49.156;8.982;2023-05-02T09:58:21;30.10;;;17.43;;
17915;SDS011;9083;49.156;8.982;2023-05-02T10:00:48;23.07;;;13.20;;
17915;SDS011;9083;49.156;8.982;2023-05-02T10:03:16;21.50;;;14.93;;
17915;SDS011;9083;49.156;8.982;2023-05-02T10:05:43;29.00;;;16.57;;
17915;SDS011;9083;49.156;8.982;2023-05-02T10:08:10;26.17;;;17.17;;
17915;SDS011;9083;49.156;8.982;2023-05-02T10:10:37;22.17;;;16.47;;
17915;SDS011;9083;49.156;8.982;2023-05-02T10:13:04;27.43;;;18.00;;
17915;SDS011;9083;49.156;8.982;2023-05-02T10:15:31;24.00;;;17.90;;
17915;SDS011;9083;49.156;8.982;2023-05-02T10:17:58;25.30;;;17.73;;
17915;SDS011;9083;49.156;8.982;2023-05-02T10:20:29;23.37;;;17.47;;
17915;SDS011;9083;49.156;8.982;2023-05-02T10:22:57;20.53;;;14.50;;
17915;SDS011;9083;49.156;8.982;2023-05-02T10:25:24;26.83;;;15.87;;
17915;SDS011;9083;49.156;8.982;2023-05-02T10:27:50;30.23;;;17.90;;
17915;SDS011;9083;49.156;8.982;2023-05-02T10:30:17;27.80;;;16.97;;
17915;SDS011;9083;49.156;8.982;2023-05-02T10:32:44;26.30;;;17.47;;
17915;SDS011;9083;49.156;8.982;2023-05-02T10:35:11;34.03;;;19.07;;
17915;SDS011;9083;49.156;8.982;2023-05-02T10:37:39;25.40;;;17.43;;
17915;SDS011;9083;49.156;8.982;2023-05-02T10:40:08;28.10;;;18.53;;
17915;SDS011;9083;49.156;8.982;2023-05-02T10:42:35;25.50;;;17.13;;
17915;SDS011;9083;49.156;8.982;2023-05-02T10:45:02;23.73;;;16.53;;
17915;SDS011;9083;49.156;8.982;2023-05-02T10:47:29;23.37;;;17.00;;
17915;SDS011;9083;49.156;8.982;2023-05-02T10:49:58;24.93;;;16.40;;
17915;SDS011;9083;49.156;8.982;2023-05-02T10:52:25;25.57;;;14.23;;
17915;SDS011;9083;49.156;8.982;2023-05-02T10:54:54;22.10;;;15.00;;
17915;SDS011;9083;49.156;8.982;2023-05-02T11:00:19;24.53;;;14.73;;
17915;SDS011;9083;49.156;8.982;2023-05-02T11:02:46;23.83;;;16.87;;
17915;SDS011;9083;49.156;8.982;2023-05-02T11:05:12;25.53;;;15.90;;
17915;SDS011;9083;49.156;8.982;2023-05-02T11:07:39;24.13;;;17.00;;
17915;SDS011;9083;49.156;8.982;2023-05-02T11:10:25;30.67;;;15.97;;
17915;SDS011;9083;49.156;8.982;2023-05-02T11:12:53;24.73;;;15.40;;
17915;SDS011;9083;49.156;8.982;2023-05-02T11:18:05;23.10;;;14.57;;
17915;SDS011;9083;49.156;8.982;2023-05-02T11:20:32;24.23;;;14.40;;
17915;SDS011;9083;49.156;8.982;2023-05-02T11:22:59;23.57;;;14.43;;
17915;SDS011;9083;49.156;8.982;2023-05-02T11:25:48;19.10;;;12.70;;
17915;SDS011;9083;49.156;8.982;2023-05-02T11:30:59;21.00;;;12.87;;
17915;SDS011;9083;49.156;8.982;2023-05-02T11:33:26;23.73;;;13.33;;
17915;SDS011;9083;49.156;8.982;2023-05-02T11:35:54;21.43;;;12.77;;
17915;SDS011;9083;49.156;8.982;2023-05-02T11:38:22;21.43;;;11.30;;
17915;SDS011;9083;49.156;8.982;2023-05-02T11:40:51;24.03;;;10.23;;
17915;SDS011;9083;49.156;8.982;2023-05-02T11:43:20;24.20;;;12.70;;
17915;SDS011;9083;49.156;8.982;2023-05-02T11:45:47;17.53;;;10.23;;
17915;SDS011;9083;49.156;8.982;2023-05-02T11:48:15;13.90;;;10.03;;
17915;SDS011;9083;49.156;8.982;2023-05-02T11:50:42;14.13;;;7.93;;
17915;SDS011;9083;49.156;8.982;2023-05-02T11:53:09;22.03;;;10.37;;
17915;SDS011;9083;49.156;8.982;2023-05-02T11:55:35;16.40;;;9.73;;
17915;SDS011;9083;49.156;8.982;2023-05-02T11:58:04;16.27;;;10.43;;
17915;SDS011;9083;49.156;8.982;2023-05-02T12:00:30;22.93;;;10.33;;
17915;SDS011;9083;49.156;8.982;2023-05-02T12:02:56;13.20;;;9.43;;
17915;SDS011;9083;49.156;8.982;2023-05-02T12:05:26;13.20;;;9.53;;
17915;SDS011;9083;49.156;8.982;2023-05-02T12:07:53;14.77;;;10.10;;
17915;SDS011;9083;49.156;8.982;2023-05-02T12:10:19;14.17;;;10.33;;
17915;SDS011;9083;49.156;8.982;2023-05-02T12:12:46;14.90;;;11.30;;
17915;SDS011;9083;49.156;8.982;2023-05-02T12:15:14;14.80;;;10.30;;
17915;SDS011;9083;49.156;8.982;2023-05-02T12:17:41;16.67;;;11.20;;
17915;SDS011;9083;49.156;8.982;2023-05-02T12:20:08;15.40;;;9.73;;
17915;SDS011;9083;49.156;8.982;2023-05-02T12:22:34;12.53;;;9.30;;
17915;SDS011;9083;49.156;8.982;2023-05-02T12:25:01;19.13;;;10.20;;
17915;SDS011;9083;49.156;8.982;2023-05-02T12:27:29;16.70;;;9.23;;
17915;SDS011;9083;49.156;8.982;2023-05-02T12:29:57;18.17;;;9.70;;
17915;SDS011;9083;49.156;8.982;2023-05-02T12:32:28;15.90;;;9.50;;
17915;SDS011;9083;49.156;8.982;2023-05-02T12:34:55;13.13;;;8.93;;
17915;SDS011;9083;49.156;8.982;2023-05-02T12:37:22;14.43;;;10.40;;
17915;SDS011;9083;49.156;8.982;2023-05-02T12:39:49;19.97;;;9.83;;
17915;SDS011;9083;49.156;8.982;2023-05-02T12:42:16;14.47;;;7.90;;
17915;SDS011;9083;49.156;8.982;2023-05-02T12:44:44;19.03;;;9.57;;
17915;SDS011;9083;49.156;8.982;2023-05-02T12:47:11;15.63;;;9.57;;
17915;SDS011;9083;49.156;8.982;2023-05-02T12:49:51;11.90;;;7.83;;
17915;SDS011;9083;49.156;8.982;2023-05-02T12:52:18;14.37;;;8.37;;
17915;SDS011;9083;49.156;8.982;2023-05-02T12:54:44;11.33;;;8.23;;
17915;SDS011;9083;49.156;8.982;2023-05-02T12:57:20;22.03;;;8.50;;
17915;SDS011;9083;49.156;8.982;2023-05-02T12:59:47;12.27;;;8.90;;
17915;SDS011;9083;49.156;8.982;2023-05-02T13:02:16;12.57;;;8.50;;
17915;SDS011;9083;49.156;8.982;2023-05-02T13:04:42;18.47;;;8.57;;
17915;SDS011;9083;49.156;8.982;2023-05-02T13:07:10;11.30;;;8.17;;
17915;SDS011;9083;49.156;8.982;2023-05-02T13:09:36;13.37;;;7.93;;
17915;SDS011;9083;49.156;8.982;2023-05-02T13:12:03;10.70;;;8.60;;
17915;SDS011;9083;49.156;8.982;2023-05-02T13:14:30;11.30;;;6.60;;
17915;SDS011;9083;49.156;8.982;2023-05-02T13:16:56;13.57;;;7.23;;
17915;SDS011;9083;49.156;8.982;2023-05-02T13:19:23;30.07;;;7.77;;
17915;SDS011;9083;49.156;8.982;2023-05-02T13:21:49;13.33;;;7.80;;
17915;SDS011;9083;49.156;8.982;2023-05-02T13:24:17;12.30;;;7.07;;
17915;SDS011;9083;49.156;8.982;2023-05-02T13:26:43;11.20;;;8.10;;
17915;SDS011;9083;49.156;8.982;2023-05-02T13:29:14;19.03;;;8.87;;
17915;SDS011;9083;49.156;8.982;2023-05-02T13:31:40;14.73;;;7.97;;
17915;SDS011;9083;49.156;8.982;2023-05-02T13:34:07;10.60;;;7.60;;
17915;SDS011;9083;49.156;8.982;2023-05-02T13:36:33;9.30;;;6.83;;
17915;SDS011;9083;49.156;8.982;2023-05-02T13:39:01;12.40;;;8.47;;
17915;SDS011;9083;49.156;8.982;2023-05-02T13:41:29;12.97;;;6.53;;
17915;SDS011;9083;49.156;8.982;2023-05-02T13:43:56;9.53;;;6.47;;
17915;SDS011;9083;49.156;8.982;2023-05-02T13:46:22;12.27;;;6.73;;
17915;SDS011;9083;49.156;8.982;2023-05-02T13:48:48;9.67;;;5.37;;
17915;SDS011;9083;49.156;8.982;2023-05-02T13:51:15;10.53;;;5.07;;
17915;SDS011;9083;49.156;8.982;2023-05-02T13:53:41;10.40;;;5.93;;
17915;SDS011;9083;49.156;8.982;2023-05-02T13:56:08;10.50;;;6.47;;
17915;SDS011;9083;49.156;8.982;2023-05-02T13:58:35;13.17;;;6.30;;
17915;SDS011;9083;49.156;8.982;2023-05-02T14:01:02;13.87;;;4.77;;
17915;SDS011;9083;49.156;8.982;2023-05-02T14:03:29;14.30;;;5.70;;
17915;SDS011;9083;49.156;8.982;2023-05-02T14:05:55;6.57;;;4.43;;
17915;SDS011;9083;49.156;8.982;2023-05-02T14:08:21;6.07;;;5.33;;
17915;SDS011;9083;49.156;8.982;2023-05-02T14:10:48;6.63;;;4.00;;
17915;SDS011;9083;49.156;8.982;2023-05-02T14:13:14;16.77;;;5.57;;
17915;SDS011;9083;49.156;8.982;2023-05-02T14:15:42;8.27;;;4.23;;
17915;SDS011;9083;49.156;8.982;2023-05-02T14:18:08;4.70;;;3.00;;
17915;SDS011;9083;49.156;8.982;2023-05-02T14:20:35;5.30;;;3.70;;
17915;SDS011;9083;49.156;8.982;2023-05-02T14:23:01;10.13;;;4.10;;
17915;SDS011;9083;49.156;8.982;2023-05-02T14:25:28;6.20;;;4.43;;
17915;SDS011;9083;49.156;8.982;2023-05-02T14:27:54;5.07;;;4.00;;
17915;SDS011;9083;49.156;8.982;2023-05-02T14:30:20;6.63;;;4.33;;
17915;SDS011;9083;49.156;8.982;2023-05-02T14:32:48;7.53;;;3.47;;
17915;SDS011;9083;49.156;8.982;2023-05-02T14:35:14;10.53;;;3.47;;
17915;SDS011;9083;49.156;8.982;2023-05-02T14:37:41;8.07;;;3.13;;
17915;SDS011;9083;49.156;8.982;2023-05-02T14:40:09;3.73;;;3.43;;
17915;SDS011;9083;49.156;8.982;2023-05-02T14:42:36;6.20;;;2.90;;
17915;SDS011;9083;49.156;8.982;2023-05-02T14:45:03;3.13;;;2.10;;
17915;SDS011;9083;49.156;8.982;2023-05-02T14:47:29;2.07;;;1.93;;
17915;SDS011;9083;49.156;8.982;2023-05-02T14:49:57;3.77;;;2.20;;
17915;SDS011;9083;49.156;8.982;2023-05-02T14:52:23;2.97;;;2.23;;
17915;SDS011;9083;49.156;8.982;2023-05-02T14:54:50;2.67;;;2.13;;
17915;SDS011;9083;49.156;8.982;2023-05-02T14:57:17;3.00;;;2.70;;
17915;SDS011;9083;49.156;8.982;2023-05-02T14:59:44;8.67;;;2.60;;